ROMMA est une association bénévole à but non lucratif. Votre soutien est indispensable : ADHERER à ROMMA ou FAIRE un DON

Briord - (01, Ain)

Bugey (281 m)   Longitude: 05° 29' 13" E   Latitude: 45° 46' 37" N Station partenaire n°15
 

Détail journalier du     <<     >>

Température Precipitation Humidité Pression Vent Dir Rafale Dir. rafale Ensol.
Heure (°C) (mm) (%) (hPa) (km/h) (km/h) (min)
01:00 21.40831017013SSE0
02:00 23.107010162---21SE0
03:00 22.9071101610SE27SE0
04:00 21.707510162SE15SE0
05:00 19.80811016011E0
06:00 20.308010161---18SE0
07:00 18.2086101605SE0
08:00 20.408110172ESE15ESE25
09:00 22.6076101702O45
10:00 24.207310161ONO6ONO60
11:00 26.106510161ONO8OSO55
12:00 28.005710162O13OSO60
13:00 28.605710164SE19SE50
14:00 27.905910156SE18SE10
15:00 29.805410151ONO10ONO15
16:00 29.605010152O6ONO20
17:00 31.404510142SSE18N55
18:00 31.204810142NNO13NNO60
19:00 28.305610152SSE13SSO0
20:00 26.5057101503ENE25
21:00 24.1068101602ENE0
22:00 22.3077101605N0
23:00 21.3079101700---0
minuit 19.8083101702NO0

Graphique du 28-08-2019

 

Serveur OMMA